sensor_id;sensor_type;location;lat;lon;timestamp;pressure;altitude;pressure_sealevel;temperature;humidity
57102;BME280;42982;54.558;18.508;2022-09-01T00:00:46;101541.81;;;13.82;72.01
57102;BME280;42982;54.558;18.508;2022-09-01T00:01:55;101546.41;;;13.81;72.12
57102;BME280;42982;54.558;18.508;2022-09-01T00:02:58;101543.16;;;13.79;72.19
57102;BME280;42982;54.558;18.508;2022-09-01T00:04:02;101544.22;;;13.83;72.06
57102;BME280;42982;54.558;18.508;2022-09-01T00:05:10;101547.22;;;13.82;72.28
57102;BME280;42982;54.558;18.508;2022-09-01T00:06:16;101545.31;;;13.82;72.05
57102;BME280;42982;54.558;18.508;2022-09-01T00:07:22;101551.78;;;13.86;71.75
57102;BME280;42982;54.558;18.508;2022-09-01T00:08:27;101546.13;;;13.88;72.16
57102;BME280;42982;54.558;18.508;2022-09-01T00:09:31;101563.41;;;13.92;71.49
57102;BME280;42982;54.558;18.508;2022-09-01T00:10:38;101560.19;;;13.85;71.83
57102;BME280;42982;54.558;18.508;2022-09-01T00:11:45;101569.41;;;13.79;71.82
57102;BME280;42982;54.558;18.508;2022-09-01T00:12:47;101579.13;;;13.80;72.26
57102;BME280;42982;54.558;18.508;2022-09-01T00:13:55;101573.72;;;13.85;73.17
57102;BME280;42982;54.558;18.508;2022-09-01T00:15:03;101572.59;;;13.86;73.91
57102;BME280;42982;54.558;18.508;2022-09-01T00:16:09;101579.63;;;13.87;75.00
57102;BME280;42982;54.558;18.508;2022-09-01T00:17:16;101582.31;;;13.87;75.64
57102;BME280;42982;54.558;18.508;2022-09-01T00:18:18;101574.25;;;13.82;77.20
57102;BME280;42982;54.558;18.508;2022-09-01T00:19:22;101570.44;;;13.88;77.83
57102;BME280;42982;54.558;18.508;2022-09-01T00:20:26;101579.66;;;13.82;78.67
57102;BME280;42982;54.558;18.508;2022-09-01T00:21:32;101574.56;;;13.70;79.35
57102;BME280;42982;54.558;18.508;2022-09-01T00:22:34;101571.88;;;13.60;80.29
57102;BME280;42982;54.558;18.508;2022-09-01T00:23:39;101579.19;;;13.59;80.52
57102;BME280;42982;54.558;18.508;2022-09-01T00:24:41;101579.72;;;13.51;80.81
57102;BME280;42982;54.558;18.508;2022-09-01T00:25:43;101575.97;;;13.42;81.68
57102;BME280;42982;54.558;18.508;2022-09-01T00:26:48;101566.75;;;13.48;82.65
57102;BME280;42982;54.558;18.508;2022-09-01T00:27:55;101561.91;;;13.50;82.84
57102;BME280;42982;54.558;18.508;2022-09-01T00:29:05;101563.50;;;13.46;83.50
57102;BME280;42982;54.558;18.508;2022-09-01T00:30:13;101555.16;;;13.48;83.73
57102;BME280;42982;54.558;18.508;2022-09-01T00:31:19;101556.50;;;13.45;84.13
57102;BME280;42982;54.558;18.508;2022-09-01T00:32:24;101550.56;;;13.48;84.77
57102;BME280;42982;54.558;18.508;2022-09-01T00:33:26;101550.53;;;13.58;84.66
57102;BME280;42982;54.558;18.508;2022-09-01T00:34:32;101551.63;;;13.57;84.51
57102;BME280;42982;54.558;18.508;2022-09-01T00:35:34;101554.88;;;13.54;84.75
57102;BME280;42982;54.558;18.508;2022-09-01T00:36:38;101544.84;;;13.55;84.65
57102;BME280;42982;54.558;18.508;2022-09-01T00:37:43;101556.47;;;13.60;84.24
57102;BME280;42982;54.558;18.508;2022-09-01T00:38:46;101551.63;;;13.62;84.09
57102;BME280;42982;54.558;18.508;2022-09-01T00:39:54;101546.97;;;13.68;84.08
57102;BME280;42982;54.558;18.508;2022-09-01T00:40:56;101550.47;;;13.74;83.79
57102;BME280;42982;54.558;18.508;2022-09-01T00:42:00;101553.19;;;13.79;83.75
57102;BME280;42982;54.558;18.508;2022-09-01T00:44:19;101546.66;;;13.85;83.83
57102;BME280;42982;54.558;18.508;2022-09-01T00:45:28;101541.25;;;13.85;83.98
57102;BME280;42982;54.558;18.508;2022-09-01T00:46:43;101539.91;;;13.87;83.88
57102;BME280;42982;54.558;18.508;2022-09-01T00:47:52;101536.13;;;13.88;84.06
57102;BME280;42982;54.558;18.508;2022-09-01T00:49:03;101535.81;;;13.90;84.07
57102;BME280;42982;54.558;18.508;2022-09-01T00:50:09;101540.69;;;13.93;83.97
57102;BME280;42982;54.558;18.508;2022-09-01T00:51:16;101533.13;;;13.90;84.36
57102;BME280;42982;54.558;18.508;2022-09-01T00:52:30;101532.56;;;13.93;84.23
57102;BME280;42982;54.558;18.508;2022-09-01T00:53:37;101525.00;;;13.90;84.04
57102;BME280;42982;54.558;18.508;2022-09-01T00:54:50;101532.06;;;13.91;84.11
57102;BME280;42982;54.558;18.508;2022-09-01T00:55:59;101527.44;;;13.91;84.06
57102;BME280;42982;54.558;18.508;2022-09-01T00:57:06;101529.34;;;13.91;83.96
57102;BME280;42982;54.558;18.508;2022-09-01T00:58:11;101531.81;;;13.87;83.89
57102;BME280;42982;54.558;18.508;2022-09-01T00:59:21;101536.66;;;13.90;83.89
57102;BME280;42982;54.558;18.508;2022-09-01T01:00:32;101527.72;;;13.90;83.53
57102;BME280;42982;54.558;18.508;2022-09-01T01:01:34;101528.53;;;13.90;83.60
57102;BME280;42982;54.558;18.508;2022-09-01T01:02:40;101524.19;;;13.89;83.54
57102;BME280;42982;54.558;18.508;2022-09-01T01:03:44;101529.84;;;13.93;83.43
57102;BME280;42982;54.558;18.508;2022-09-01T01:04:49;101530.41;;;13.90;83.97
57102;BME280;42982;54.558;18.508;2022-09-01T01:05:56;101527.72;;;13.90;83.44
57102;BME280;42982;54.558;18.508;2022-09-01T01:07:02;101525.00;;;13.90;83.59
57102;BME280;42982;54.558;18.508;2022-09-01T01:08:09;101526.66;;;13.86;83.60
57102;BME280;42982;54.558;18.508;2022-09-01T01:09:12;101526.09;;;13.84;83.73
57102;BME280;42982;54.558;18.508;2022-09-01T01:10:18;101533.16;;;13.80;84.12
57102;BME280;42982;54.558;18.508;2022-09-01T01:11:27;101526.41;;;13.82;84.08
57102;BME280;42982;54.558;18.508;2022-09-01T01:12:32;101519.91;;;13.83;83.80
57102;BME280;42982;54.558;18.508;2022-09-01T01:13:52;101525.03;;;13.85;83.84
57102;BME280;42982;54.558;18.508;2022-09-01T01:14:57;101533.16;;;13.85;83.40
57102;BME280;42982;54.558;18.508;2022-09-01T01:16:05;101528.06;;;13.78;83.60
57102;BME280;42982;54.558;18.508;2022-09-01T01:17:08;101527.75;;;13.80;83.67
57102;BME280;42982;54.558;18.508;2022-09-01T01:18:13;101519.09;;;13.83;83.44
57102;BME280;42982;54.558;18.508;2022-09-01T01:19:37;101533.72;;;13.82;83.74
57102;BME280;42982;54.558;18.508;2022-09-01T01:21:05;101530.16;;;13.86;83.71
57102;BME280;42982;54.558;18.508;2022-09-01T01:26:34;101531.56;;;13.74;83.59
57102;BME280;42982;54.558;18.508;2022-09-01T01:27:38;101524.00;;;13.76;83.39
57102;BME280;42982;54.558;18.508;2022-09-01T01:28:50;101524.28;;;13.69;83.17
57102;BME280;42982;54.558;18.508;2022-09-01T01:29:53;101517.78;;;13.75;83.29
57102;BME280;42982;54.558;18.508;2022-09-01T01:31:19;101518.59;;;13.76;83.15
57102;BME280;42982;54.558;18.508;2022-09-01T01:32:27;101524.53;;;13.78;82.99
57102;BME280;42982;54.558;18.508;2022-09-01T01:33:39;101522.66;;;13.78;83.13
57102;BME280;42982;54.558;18.508;2022-09-01T01:34:46;101524.00;;;13.76;83.41
57102;BME280;42982;54.558;18.508;2022-09-01T01:35:52;101523.44;;;13.74;83.11
57102;BME280;42982;54.558;18.508;2022-09-01T01:36:56;101513.75;;;13.73;83.29
57102;BME280;42982;54.558;18.508;2022-09-01T01:38:08;101522.94;;;13.66;83.22
57102;BME280;42982;54.558;18.508;2022-09-01T01:39:16;101523.50;;;13.68;83.13
57102;BME280;42982;54.558;18.508;2022-09-01T01:40:23;101528.91;;;13.68;83.00
57102;BME280;42982;54.558;18.508;2022-09-01T01:41:28;101523.50;;;13.58;83.13
57102;BME280;42982;54.558;18.508;2022-09-01T01:42:35;101527.84;;;13.59;83.33
57102;BME280;42982;54.558;18.508;2022-09-01T01:43:44;101527.28;;;13.57;83.49
57102;BME280;42982;54.558;18.508;2022-09-01T01:44:48;101533.78;;;13.51;83.30
57102;BME280;42982;54.558;18.508;2022-09-01T01:45:55;101522.19;;;13.51;83.83
57102;BME280;42982;54.558;18.508;2022-09-01T01:47:10;101527.84;;;13.49;83.98
57102;BME280;42982;54.558;18.508;2022-09-01T01:48:14;101536.50;;;13.51;83.64
57102;BME280;42982;54.558;18.508;2022-09-01T01:49:24;101531.09;;;13.56;83.44
57102;BME280;42982;54.558;18.508;2022-09-01T01:50:28;101531.09;;;13.56;83.33
57102;BME280;42982;54.558;18.508;2022-09-01T01:51:33;101527.84;;;13.54;83.17
57102;BME280;42982;54.558;18.508;2022-09-01T01:52:45;101532.69;;;13.52;83.16
57102;BME280;42982;54.558;18.508;2022-09-01T01:53:50;101527.59;;;13.51;83.05
57102;BME280;42982;54.558;18.508;2022-09-01T01:54:54;101531.91;;;13.52;83.03
57102;BME280;42982;54.558;18.508;2022-09-01T01:56:02;101531.09;;;13.46;83.16
57102;BME280;42982;54.558;18.508;2022-09-01T01:57:10;101531.09;;;13.46;83.03
57102;BME280;42982;54.558;18.508;2022-09-01T01:58:15;101524.91;;;13.35;83.35
57102;BME280;42982;54.558;18.508;2022-09-01T01:59:24;101527.63;;;13.40;83.42
57102;BME280;42982;54.558;18.508;2022-09-01T02:00:31;101526.28;;;13.43;83.19
57102;BME280;42982;54.558;18.508;2022-09-01T02:01:37;101524.88;;;13.45;83.15
57102;BME280;42982;54.558;18.508;2022-09-01T02:02:40;101526.81;;;13.40;83.16
57102;BME280;42982;54.558;18.508;2022-09-01T02:03:43;101526.81;;;13.40;83.21
57102;BME280;42982;54.558;18.508;2022-09-01T02:04:47;101529.78;;;13.38;83.22
57102;BME280;42982;54.558;18.508;2022-09-01T02:05:54;101525.72;;;13.41;83.26
57102;BME280;42982;54.558;18.508;2022-09-01T02:07:01;101517.88;;;13.44;83.29
57102;BME280;42982;54.558;18.508;2022-09-01T02:08:06;101523.28;;;13.44;83.60
57102;BME280;42982;54.558;18.508;2022-09-01T02:09:13;101523.00;;;13.46;84.00
57102;BME280;42982;54.558;18.508;2022-09-01T02:10:18;101516.22;;;13.49;83.85
57102;BME280;42982;54.558;18.508;2022-09-01T02:11:26;101518.38;;;13.52;83.65
57102;BME280;42982;54.558;18.508;2022-09-01T02:12:35;101517.84;;;13.55;83.55
57102;BME280;42982;54.558;18.508;2022-09-01T02:13:43;101513.78;;;13.57;83.37
57102;BME280;42982;54.558;18.508;2022-09-01T02:14:51;101513.25;;;13.55;82.98
57102;BME280;42982;54.558;18.508;2022-09-01T02:16:00;101511.88;;;13.58;82.86
57102;BME280;42982;54.558;18.508;2022-09-01T02:17:08;101515.13;;;13.60;83.05
57102;BME280;42982;54.558;18.508;2022-09-01T02:18:17;101507.84;;;13.55;83.09
57102;BME280;42982;54.558;18.508;2022-09-01T02:19:20;101506.22;;;13.59;83.22
57102;BME280;42982;54.558;18.508;2022-09-01T02:20:28;101507.28;;;13.58;83.24
57102;BME280;42982;54.558;18.508;2022-09-01T02:21:33;101500.53;;;13.61;83.04
57102;BME280;42982;54.558;18.508;2022-09-01T02:22:40;101503.78;;;13.58;83.12
57102;BME280;42982;54.558;18.508;2022-09-01T02:23:53;101501.13;;;13.53;83.33
57102;BME280;42982;54.558;18.508;2022-09-01T02:25:02;101503.28;;;13.56;83.39
57102;BME280;42982;54.558;18.508;2022-09-01T02:26:08;101495.41;;;13.59;83.18
57102;BME280;42982;54.558;18.508;2022-09-01T02:27:12;101498.13;;;13.59;83.01
57102;BME280;42982;54.558;18.508;2022-09-01T02:28:16;101491.63;;;13.60;83.16
57102;BME280;42982;54.558;18.508;2022-09-01T02:29:27;101498.63;;;13.61;82.94
57102;BME280;42982;54.558;18.508;2022-09-01T02:30:33;101498.38;;;13.63;83.24
57102;BME280;42982;54.558;18.508;2022-09-01T02:31:36;101502.41;;;13.65;83.11
57102;BME280;42982;54.558;18.508;2022-09-01T02:32:42;101499.44;;;13.67;83.44
57102;BME280;42982;54.558;18.508;2022-09-01T02:33:47;101499.97;;;13.64;83.07
57102;BME280;42982;54.558;18.508;2022-09-01T02:34:50;101503.78;;;13.63;82.95
57102;BME280;42982;54.558;18.508;2022-09-01T02:35:56;101504.03;;;13.66;83.17
57102;BME280;42982;54.558;18.508;2022-09-01T02:37:04;101499.19;;;13.63;83.57
57102;BME280;42982;54.558;18.508;2022-09-01T02:38:09;101502.94;;;13.67;83.69
57102;BME280;42982;54.558;18.508;2022-09-01T02:39:10;101505.63;;;13.67;83.66
57102;BME280;42982;54.558;18.508;2022-09-01T02:40:15;101502.69;;;13.69;83.41
57102;BME280;42982;54.558;18.508;2022-09-01T02:41:17;101504.03;;;13.66;83.67
57102;BME280;42982;54.558;18.508;2022-09-01T02:42:27;101505.63;;;13.67;83.68
57102;BME280;42982;54.558;18.508;2022-09-01T02:43:35;101511.34;;;13.66;83.67
57102;BME280;42982;54.558;18.508;2022-09-01T02:44:39;101515.66;;;13.67;83.47
57102;BME280;42982;54.558;18.508;2022-09-01T02:45:44;101502.41;;;13.65;83.83
57102;BME280;42982;54.558;18.508;2022-09-01T02:46:51;101504.59;;;13.63;83.83
57102;BME280;42982;54.558;18.508;2022-09-01T02:47:59;101505.63;;;13.67;83.73
57102;BME280;42982;54.558;18.508;2022-09-01T02:49:03;101506.19;;;13.70;83.77
57102;BME280;42982;54.558;18.508;2022-09-01T02:50:12;101508.59;;;13.71;83.60
57102;BME280;42982;54.558;18.508;2022-09-01T02:51:20;101501.31;;;13.72;83.54
57102;BME280;42982;54.558;18.508;2022-09-01T02:52:25;101505.88;;;13.71;83.31
57102;BME280;42982;54.558;18.508;2022-09-01T02:53:37;101503.47;;;13.70;83.45
57102;BME280;42982;54.558;18.508;2022-09-01T02:54:42;101501.88;;;13.68;83.33
57102;BME280;42982;54.558;18.508;2022-09-01T02:55:49;101508.88;;;13.64;83.63
57102;BME280;42982;54.558;18.508;2022-09-01T02:56:52;101503.22;;;13.66;83.66
57102;BME280;42982;54.558;18.508;2022-09-01T02:57:59;101502.94;;;13.67;83.50
57102;BME280;42982;54.558;18.508;2022-09-01T02:59:00;101506.19;;;13.64;83.46
57102;BME280;42982;54.558;18.508;2022-09-01T03:00:09;101518.63;;;13.65;83.29
57102;BME280;42982;54.558;18.508;2022-09-01T03:01:29;101502.41;;;13.65;83.32
57102;BME280;42982;54.558;18.508;2022-09-01T03:02:35;101505.94;;;13.66;83.72
57102;BME280;42982;54.558;18.508;2022-09-01T03:03:40;101501.31;;;13.66;83.33
57102;BME280;42982;54.558;18.508;2022-09-01T03:04:48;101495.91;;;13.66;83.43
57102;BME280;42982;54.558;18.508;2022-09-01T03:05:52;101504.59;;;13.63;83.44
57102;BME280;42982;54.558;18.508;2022-09-01T03:06:56;101504.03;;;13.66;83.13
57102;BME280;42982;54.558;18.508;2022-09-01T03:08:05;101497.28;;;13.69;83.31
57102;BME280;42982;54.558;18.508;2022-09-01T03:09:10;101494.28;;;13.71;83.75
57102;BME280;42982;54.558;18.508;2022-09-01T03:10:15;101494.53;;;13.74;83.68
57102;BME280;42982;54.558;18.508;2022-09-01T03:11:22;101501.03;;;13.78;84.08
57102;BME280;42982;54.558;18.508;2022-09-01T03:12:28;101503.97;;;13.77;83.96
57102;BME280;42982;54.558;18.508;2022-09-01T03:13:33;101499.13;;;13.74;83.50
57102;BME280;42982;54.558;18.508;2022-09-01T03:14:35;101510.75;;;13.74;83.73
57102;BME280;42982;54.558;18.508;2022-09-01T03:15:43;101505.09;;;13.71;83.73
57102;BME280;42982;54.558;18.508;2022-09-01T03:16:45;101507.78;;;13.76;83.58
57102;BME280;42982;54.558;18.508;2022-09-01T03:17:50;101502.38;;;13.76;83.56
57102;BME280;42982;54.558;18.508;2022-09-01T03:18:52;101501.84;;;13.74;83.26
57102;BME280;42982;54.558;18.508;2022-09-01T03:19:57;101499.66;;;13.76;83.36
57102;BME280;42982;54.558;18.508;2022-09-01T03:21:07;101504.53;;;13.74;83.65
57102;BME280;42982;54.558;18.508;2022-09-01T03:22:20;101499.41;;;13.72;83.82
57102;BME280;42982;54.558;18.508;2022-09-01T03:23:22;101504.53;;;13.74;83.57
57102;BME280;42982;54.558;18.508;2022-09-01T03:24:33;101502.94;;;13.73;83.75
57102;BME280;42982;54.558;18.508;2022-09-01T03:25:37;101504.53;;;13.74;83.73
57102;BME280;42982;54.558;18.508;2022-09-01T03:26:46;101504.53;;;13.74;83.45
57102;BME280;42982;54.558;18.508;2022-09-01T03:27:56;101507.25;;;13.74;83.88
57102;BME280;42982;54.558;18.508;2022-09-01T03:29:06;101507.78;;;13.71;83.74
57102;BME280;42982;54.558;18.508;2022-09-01T03:30:10;101505.09;;;13.71;83.57
57102;BME280;42982;54.558;18.508;2022-09-01T03:31:19;101502.63;;;13.74;83.56
57102;BME280;42982;54.558;18.508;2022-09-01T03:32:23;101506.44;;;13.73;83.59
57102;BME280;42982;54.558;18.508;2022-09-01T03:33:28;101507.78;;;13.76;83.29
57102;BME280;42982;54.558;18.508;2022-09-01T03:34:32;101505.34;;;13.74;83.46
57102;BME280;42982;54.558;18.508;2022-09-01T03:35:40;101506.44;;;13.68;83.45
57102;BME280;42982;54.558;18.508;2022-09-01T03:36:44;101502.41;;;13.65;83.54
57102;BME280;42982;54.558;18.508;2022-09-01T03:37:55;101504.03;;;13.66;83.39
57102;BME280;42982;54.558;18.508;2022-09-01T03:39:00;101502.94;;;13.67;83.78
57102;BME280;42982;54.558;18.508;2022-09-01T03:40:08;101502.97;;;13.62;83.97
57102;BME280;42982;54.558;18.508;2022-09-01T03:41:15;101505.63;;;13.67;83.56
57102;BME280;42982;54.558;18.508;2022-09-01T03:42:24;101497.78;;;13.71;83.62
57102;BME280;42982;54.558;18.508;2022-09-01T03:43:33;101493.75;;;13.68;83.45
57102;BME280;42982;54.558;18.508;2022-09-01T03:44:35;101504.03;;;13.66;83.69
57102;BME280;42982;54.558;18.508;2022-09-01T03:45:41;101500.53;;;13.66;83.74
57102;BME280;42982;54.558;18.508;2022-09-01T03:46:45;101501.88;;;13.68;84.00
57102;BME280;42982;54.558;18.508;2022-09-01T03:47:48;101505.94;;;13.61;84.15
57102;BME280;42982;54.558;18.508;2022-09-01T03:48:55;101498.63;;;13.66;84.29
57102;BME280;42982;54.558;18.508;2022-09-01T03:49:59;101505.09;;;13.71;84.20
57102;BME280;42982;54.558;18.508;2022-09-01T03:51:01;101504.03;;;13.66;84.39
57102;BME280;42982;54.558;18.508;2022-09-01T03:52:04;101497.28;;;13.69;84.48
57102;BME280;42982;54.558;18.508;2022-09-01T03:53:20;101500.78;;;13.70;84.60
57102;BME280;42982;54.558;18.508;2022-09-01T03:54:27;101496.44;;;13.74;84.54
57102;BME280;42982;54.558;18.508;2022-09-01T03:55:43;101500.78;;;13.75;84.61
57102;BME280;42982;54.558;18.508;2022-09-01T03:56:46;101501.28;;;13.77;84.55
57102;BME280;42982;54.558;18.508;2022-09-01T03:57:56;101499.94;;;13.79;84.45
57102;BME280;42982;54.558;18.508;2022-09-01T03:58:58;101500.47;;;13.76;84.24
57102;BME280;42982;54.558;18.508;2022-09-01T04:00:08;101501.28;;;13.77;84.24
57102;BME280;42982;54.558;18.508;2022-09-01T04:01:26;101496.97;;;13.76;84.42
57102;BME280;42982;54.558;18.508;2022-09-01T04:02:28;101497.50;;;13.78;84.27
57102;BME280;42982;54.558;18.508;2022-09-01T04:03:32;101495.63;;;13.78;84.43
57102;BME280;42982;54.558;18.508;2022-09-01T04:04:38;101500.47;;;13.76;84.64
57102;BME280;42982;54.558;18.508;2022-09-01T04:05:46;101500.22;;;13.78;84.63
57102;BME280;42982;54.558;18.508;2022-09-01T04:06:48;101502.97;;;13.62;84.69
57102;BME280;42982;54.558;18.508;2022-09-01T04:07:57;101498.09;;;13.64;84.56
57102;BME280;42982;54.558;18.508;2022-09-01T04:09:01;101500.22;;;13.73;84.25
57102;BME280;42982;54.558;18.508;2022-09-01T04:10:09;101496.72;;;13.72;84.69
57102;BME280;42982;54.558;18.508;2022-09-01T04:11:16;101500.22;;;13.67;84.49
57102;BME280;42982;54.558;18.508;2022-09-01T04:12:26;101501.88;;;13.68;84.58
57102;BME280;42982;54.558;18.508;2022-09-01T04:13:34;101493.47;;;13.70;84.75
57102;BME280;42982;54.558;18.508;2022-09-01T04:14:37;101495.38;;;13.70;84.94
57102;BME280;42982;54.558;18.508;2022-09-01T04:15:41;101502.69;;;13.69;84.67
57102;BME280;42982;54.558;18.508;2022-09-01T04:16:47;101499.41;;;13.72;84.54
57102;BME280;42982;54.558;18.508;2022-09-01T04:18:10;101496.72;;;13.72;84.37
57102;BME280;42982;54.558;18.508;2022-09-01T04:19:24;101497.03;;;13.65;84.79
57102;BME280;42982;54.558;18.508;2022-09-01T04:20:26;101496.72;;;13.72;84.30
57102;BME280;42982;54.558;18.508;2022-09-01T04:21:29;101491.56;;;13.71;84.41
57102;BME280;42982;54.558;18.508;2022-09-01T04:22:39;101492.66;;;13.70;84.46
57102;BME280;42982;54.558;18.508;2022-09-01T04:23:44;101502.88;;;13.83;83.80
57102;BME280;42982;54.558;18.508;2022-09-01T04:24:46;101498.03;;;13.80;84.06
57102;BME280;42982;54.558;18.508;2022-09-01T04:25:57;101501.81;;;13.79;83.72
57102;BME280;42982;54.558;18.508;2022-09-01T04:27:01;101499.94;;;13.79;83.61
57102;BME280;42982;54.558;18.508;2022-09-01T04:28:09;101501.56;;;13.75;83.92
57102;BME280;42982;54.558;18.508;2022-09-01T04:29:33;101499.06;;;13.84;83.64
57102;BME280;42982;54.558;18.508;2022-09-01T04:30:40;101499.63;;;13.91;83.32
57102;BME280;42982;54.558;18.508;2022-09-01T04:32:07;101499.81;;;14.05;83.10
57102;BME280;42982;54.558;18.508;2022-09-01T04:33:17;101500.78;;;14.24;82.72
57102;BME280;42982;54.558;18.508;2022-09-01T04:34:22;101503.59;;;14.48;82.19
57102;BME280;42982;54.558;18.508;2022-09-01T04:35:28;101502.41;;;14.70;81.36
57102;BME280;42982;54.558;18.508;2022-09-01T04:36:34;101504.59;;;14.63;81.16
57102;BME280;42982;54.558;18.508;2022-09-01T04:37:43;101504.03;;;14.66;80.90
57102;BME280;42982;54.558;18.508;2022-09-01T04:38:53;101507.81;;;14.70;80.41
57102;BME280;42982;54.558;18.508;2022-09-01T04:39:57;101500.72;;;14.74;80.18
57102;BME280;42982;54.558;18.508;2022-09-01T04:41:07;101510.50;;;14.70;80.13
57102;BME280;42982;54.558;18.508;2022-09-01T04:42:12;101505.00;;;14.80;79.75
57102;BME280;42982;54.558;18.508;2022-09-01T04:43:24;101500.34;;;15.15;78.71
57102;BME280;42982;54.558;18.508;2022-09-01T04:44:31;101498.75;;;15.14;78.57
57102;BME280;42982;54.558;18.508;2022-09-01T04:45:36;101495.94;;;14.95;78.87
57102;BME280;42982;54.558;18.508;2022-09-01T04:46:41;101503.16;;;14.75;78.83
57102;BME280;42982;54.558;18.508;2022-09-01T04:47:53;101498.63;;;14.66;79.23
57102;BME280;42982;54.558;18.508;2022-09-01T04:48:59;101494.91;;;14.56;79.12
57102;BME280;42982;54.558;18.508;2022-09-01T04:50:05;101502.50;;;14.54;79.11
57102;BME280;42982;54.558;18.508;2022-09-01T04:51:14;101503.97;;;14.76;78.82
57102;BME280;42982;54.558;18.508;2022-09-01T04:52:29;101502.88;;;14.77;78.45
57102;BME280;42982;54.558;18.508;2022-09-01T04:53:33;101503.41;;;14.79;78.48
57102;BME280;42982;54.558;18.508;2022-09-01T04:54:40;101500.63;;;14.84;78.52
57102;BME280;42982;54.558;18.508;2022-09-01T04:55:47;101501.94;;;14.92;78.35
57102;BME280;42982;54.558;18.508;2022-09-01T04:56:54;101510.00;;;15.26;77.77
57102;BME280;42982;54.558;18.508;2022-09-01T04:58:01;101510.97;;;15.35;77.51
57102;BME280;42982;54.558;18.508;2022-09-01T04:59:07;101507.31;;;15.26;77.61
57102;BME280;42982;54.558;18.508;2022-09-01T05:00:20;101510.59;;;15.23;77.49
57102;BME280;42982;54.558;18.508;2022-09-01T05:01:28;101510.91;;;15.69;77.06
57102;BME280;42982;54.558;18.508;2022-09-01T05:02:32;101510.31;;;15.96;76.23
57102;BME280;42982;54.558;18.508;2022-09-01T05:03:34;101512.38;;;16.05;76.24
57102;BME280;42982;54.558;18.508;2022-09-01T05:04:49;101513.81;;;16.54;75.41
57102;BME280;42982;54.558;18.508;2022-09-01T05:05:54;101503.53;;;16.88;74.13
57102;BME280;42982;54.558;18.508;2022-09-01T05:07:02;101502.19;;;17.32;73.42
57102;BME280;42982;54.558;18.508;2022-09-01T05:08:18;101508.75;;;17.45;72.73
57102;BME280;42982;54.558;18.508;2022-09-01T05:09:22;101514.38;;;17.49;72.39
57102;BME280;42982;54.558;18.508;2022-09-01T05:11:03;101507.38;;;17.01;71.84
57102;BME280;42982;54.558;18.508;2022-09-01T05:12:14;101509.94;;;16.79;71.97
57102;BME280;42982;54.558;18.508;2022-09-01T05:13:20;101516.47;;;16.59;72.47
57102;BME280;42982;54.558;18.508;2022-09-01T05:14:25;101512.84;;;16.63;72.29
57102;BME280;42982;54.558;18.508;2022-09-01T05:15:29;101513.66;;;16.64;72.17
57102;BME280;42982;54.558;18.508;2022-09-01T05:16:33;101525.09;;;16.61;72.08
57102;BME280;42982;54.558;18.508;2022-09-01T05:17:39;101517.88;;;16.56;71.75
57102;BME280;42982;54.558;18.508;2022-09-01T05:18:44;101515.91;;;16.95;71.18
57102;BME280;42982;54.558;18.508;2022-09-01T05:19:50;101513.53;;;16.74;71.32
57102;BME280;42982;54.558;18.508;2022-09-01T05:20:54;101512.00;;;16.68;71.22
57102;BME280;42982;54.558;18.508;2022-09-01T05:22:00;101519.75;;;16.75;70.60
57102;BME280;42982;54.558;18.508;2022-09-01T05:23:11;101519.25;;;16.54;71.48
57102;BME280;42982;54.558;18.508;2022-09-01T05:24:15;101514.06;;;16.38;71.22
57102;BME280;42982;54.558;18.508;2022-09-01T05:25:18;101510.47;;;16.24;71.26
57102;BME280;42982;54.558;18.508;2022-09-01T05:26:26;101516.75;;;16.57;71.88
57102;BME280;42982;54.558;18.508;2022-09-01T05:27:32;101520.09;;;17.33;70.03
57102;BME280;42982;54.558;18.508;2022-09-01T05:28:35;101514.19;;;17.31;69.15
57102;BME280;42982;54.558;18.508;2022-09-01T05:29:40;101511.94;;;17.20;69.19
57102;BME280;42982;54.558;18.508;2022-09-01T05:30:45;101519.63;;;16.99;69.49
57102;BME280;42982;54.558;18.508;2022-09-01T05:31:50;101514.78;;;16.82;69.97
57102;BME280;42982;54.558;18.508;2022-09-01T05:32:54;101511.06;;;17.66;68.42
57102;BME280;42982;54.558;18.508;2022-09-01T05:33:57;101512.06;;;17.83;67.44
57102;BME280;42982;54.558;18.508;2022-09-01T05:35:06;101504.72;;;17.56;67.75
57102;BME280;42982;54.558;18.508;2022-09-01T05:36:14;101515.88;;;18.10;67.23
57102;BME280;42982;54.558;18.508;2022-09-01T05:37:18;101508.19;;;18.12;65.91
57102;BME280;42982;54.558;18.508;2022-09-01T05:38:26;101515.22;;;17.91;65.75
57102;BME280;42982;54.558;18.508;2022-09-01T05:39:36;101515.88;;;18.69;63.48
57102;BME280;42982;54.558;18.508;2022-09-01T05:40:42;101510.94;;;19.25;61.69
57102;BME280;42982;54.558;18.508;2022-09-01T05:41:46;101512.44;;;19.79;60.59
57102;BME280;42982;54.558;18.508;2022-09-01T05:42:56;101519.75;;;20.27;58.94
57102;BME280;42982;54.558;18.508;2022-09-01T05:44:04;101512.03;;;20.38;57.94
57102;BME280;42982;54.558;18.508;2022-09-01T05:45:09;101512.19;;;20.50;57.61
57102;BME280;42982;54.558;18.508;2022-09-01T05:46:14;101512.16;;;19.98;58.46
57102;BME280;42982;54.558;18.508;2022-09-01T05:47:17;101515.97;;;19.71;58.99
57102;BME280;42982;54.558;18.508;2022-09-01T05:48:22;101518.59;;;20.02;58.04
57102;BME280;42982;54.558;18.508;2022-09-01T05:49:25;101515.91;;;19.62;59.54
57102;BME280;42982;54.558;18.508;2022-09-01T05:50:41;101516.59;;;19.68;58.60
57102;BME280;42982;54.558;18.508;2022-09-01T05:51:52;101512.19;;;19.18;59.18